createdAt,value
2022-12-22T00:01:04.166Z,998.62
2022-12-22T00:01:49.687Z,998.62
2022-12-22T00:02:25.407Z,998.64
2022-12-22T00:03:06.051Z,998.6
2022-12-22T00:03:46.576Z,998.62
2022-12-22T00:05:44.146Z,998.69
2022-12-22T00:06:24.794Z,998.64
2022-12-22T00:07:05.443Z,998.69
2022-12-22T00:07:47.070Z,998.64
2022-12-22T00:10:00.114Z,998.67
2022-12-22T00:10:40.635Z,998.76
2022-12-22T00:11:21.174Z,998.79
2022-12-22T00:12:01.726Z,998.73
2022-12-22T00:12:42.281Z,998.73
2022-12-22T00:13:22.827Z,998.75
2022-12-22T00:14:04.091Z,998.74
2022-12-22T00:16:17.884Z,998.75
2022-12-22T00:17:00.303Z,998.66
2022-12-22T00:17:42.767Z,998.73
2022-12-22T00:18:26.913Z,998.71
2022-12-22T00:19:07.441Z,998.65
2022-12-22T00:19:49.568Z,998.66
2022-12-22T00:22:22.007Z,998.63
2022-12-22T00:23:02.528Z,998.67
2022-12-22T00:23:43.135Z,998.59
2022-12-22T00:24:23.613Z,998.63
2022-12-22T00:25:04.132Z,998.67
2022-12-22T00:25:44.651Z,998.62
2022-12-22T00:26:25.177Z,998.71
2022-12-22T00:27:05.722Z,998.75
2022-12-22T00:27:46.274Z,998.66
2022-12-22T00:28:26.787Z,998.6
2022-12-22T00:29:07.309Z,998.65
2022-12-22T00:29:47.831Z,998.74
2022-12-22T00:30:28.396Z,998.66
2022-12-22T00:31:08.936Z,998.61
2022-12-22T00:31:49.478Z,998.54
2022-12-22T00:32:30.034Z,998.59
2022-12-22T00:33:10.585Z,998.59
2022-12-22T00:33:51.236Z,998.59
2022-12-22T00:34:32.672Z,998.56
2022-12-22T00:35:12.154Z,998.54
2022-12-22T00:35:52.703Z,998.52
2022-12-22T00:36:33.228Z,998.56
2022-12-22T00:37:13.781Z,998.56
2022-12-22T00:37:54.294Z,998.58
2022-12-22T00:38:34.807Z,998.59
2022-12-22T00:39:15.341Z,998.57
2022-12-22T00:41:28.885Z,998.61
2022-12-22T00:42:09.420Z,998.62
2022-12-22T00:42:49.959Z,998.59
2022-12-22T00:43:30.474Z,998.53
2022-12-22T00:44:11.009Z,998.53
2022-12-22T00:44:51.511Z,998.54
2022-12-22T00:45:32.108Z,998.56
2022-12-22T00:46:12.701Z,998.49
2022-12-22T00:46:53.170Z,998.54
2022-12-22T00:47:33.722Z,998.48
2022-12-22T00:48:14.263Z,998.46
2022-12-22T00:48:54.816Z,998.41
2022-12-22T00:49:35.393Z,998.42
2022-12-22T00:50:16.499Z,998.44
2022-12-22T00:50:57.014Z,998.39
2022-12-22T00:51:37.540Z,998.37
2022-12-22T00:52:18.091Z,998.37
2022-12-22T00:52:58.632Z,998.36
2022-12-22T00:53:39.184Z,998.36
2022-12-22T00:54:19.743Z,998.33
2022-12-22T00:55:00.302Z,998.29
2022-12-22T00:55:40.832Z,998.35
2022-12-22T00:56:21.357Z,998.33
2022-12-22T00:57:01.870Z,998.29
2022-12-22T00:57:42.398Z,998.26
2022-12-22T00:59:55.522Z,998.27
2022-12-22T01:00:36.059Z,998.28
2022-12-22T01:01:17.221Z,998.19
2022-12-22T01:01:57.791Z,998.13
2022-12-22T01:02:39.206Z,998.11
2022-12-22T01:03:19.635Z,998.16
2022-12-22T01:04:00.142Z,998.18
2022-12-22T01:04:41.231Z,998.18
2022-12-22T01:05:21.758Z,998.17
2022-12-22T01:06:02.273Z,998.12
2022-12-22T01:06:42.790Z,998.17
2022-12-22T01:07:23.320Z,998.12
2022-12-22T01:08:03.858Z,998.15
2022-12-22T01:08:44.377Z,998.13
2022-12-22T01:09:24.890Z,998.17
2022-12-22T01:10:05.423Z,998.12
2022-12-22T01:10:46.888Z,998.16
2022-12-22T01:11:27.464Z,998.13
2022-12-22T01:12:08.012Z,998.19
2022-12-22T01:12:48.567Z,998.13
2022-12-22T01:13:29.133Z,998.09
2022-12-22T01:14:09.667Z,998.13
2022-12-22T01:14:50.222Z,998.11
2022-12-22T01:15:30.861Z,998.07
2022-12-22T01:16:11.378Z,998.08
2022-12-22T01:16:52.591Z,998.01
2022-12-22T01:17:33.135Z,998.05
2022-12-22T01:18:13.655Z,997.96
2022-12-22T01:18:54.205Z,997.96
2022-12-22T01:19:34.753Z,998.01
2022-12-22T01:20:15.328Z,998.02
2022-12-22T01:20:55.869Z,997.95
2022-12-22T01:21:36.423Z,998.03
2022-12-22T01:22:16.998Z,997.96
2022-12-22T01:22:57.515Z,998.01
2022-12-22T01:25:11.070Z,997.94
2022-12-22T01:25:51.597Z,997.95
2022-12-22T01:26:32.158Z,997.93
2022-12-22T01:27:12.663Z,997.94
2022-12-22T01:27:53.186Z,997.88
2022-12-22T01:28:33.699Z,997.89
2022-12-22T01:29:14.246Z,997.91
2022-12-22T01:29:54.796Z,997.9
2022-12-22T01:30:35.440Z,997.88
2022-12-22T01:31:15.957Z,997.87
2022-12-22T01:31:56.449Z,997.87
2022-12-22T01:32:36.997Z,997.82
2022-12-22T01:33:17.551Z,997.85
2022-12-22T01:33:58.099Z,997.9
2022-12-22T01:34:38.621Z,997.81
2022-12-22T01:35:19.169Z,997.86
2022-12-22T01:35:59.652Z,997.82
2022-12-22T01:36:40.344Z,997.88
2022-12-22T01:37:20.881Z,997.85
2022-12-22T01:38:01.409Z,997.82
2022-12-22T01:38:41.959Z,997.86
2022-12-22T01:39:22.511Z,997.8
2022-12-22T01:40:03.057Z,997.86
2022-12-22T01:40:43.675Z,997.84
2022-12-22T01:41:24.173Z,997.76
2022-12-22T01:42:04.719Z,997.79
2022-12-22T01:42:45.296Z,997.79
2022-12-22T01:43:25.885Z,997.82
2022-12-22T01:44:06.376Z,997.76
2022-12-22T01:44:46.915Z,997.79
2022-12-22T01:45:27.477Z,997.73
2022-12-22T01:46:08.060Z,997.7
2022-12-22T01:46:48.702Z,997.67
2022-12-22T01:47:29.084Z,997.69
2022-12-22T01:48:09.603Z,997.63
2022-12-22T01:48:50.141Z,997.6
2022-12-22T01:49:30.671Z,997.57
2022-12-22T01:50:11.231Z,997.66
2022-12-22T01:50:51.799Z,997.59
2022-12-22T01:53:04.822Z,997.63
2022-12-22T01:53:45.375Z,997.67
2022-12-22T01:54:25.892Z,997.66
2022-12-22T01:55:06.408Z,997.65
2022-12-22T01:55:46.929Z,997.63
2022-12-22T01:56:27.444Z,997.65
2022-12-22T01:57:07.988Z,997.65
2022-12-22T01:57:48.541Z,997.63
2022-12-22T01:58:29.099Z,997.64
2022-12-22T01:59:09.619Z,997.69
2022-12-22T01:59:50.181Z,997.64
2022-12-22T02:00:30.641Z,997.64
2022-12-22T02:01:11.221Z,997.66
2022-12-22T02:01:51.830Z,997.7
2022-12-22T02:02:32.327Z,997.68
2022-12-22T02:03:12.768Z,997.67
2022-12-22T02:03:53.335Z,997.64
2022-12-22T02:04:33.845Z,997.71
2022-12-22T02:05:14.441Z,997.7
2022-12-22T02:05:55.007Z,997.68
2022-12-22T02:06:35.542Z,997.6
2022-12-22T02:07:16.032Z,997.71
2022-12-22T02:07:56.581Z,997.74
2022-12-22T02:08:37.089Z,997.67
2022-12-22T02:09:17.645Z,997.8
2022-12-22T02:09:58.181Z,997.72
2022-12-22T02:10:38.709Z,997.66
2022-12-22T02:11:19.288Z,997.71
2022-12-22T02:11:59.803Z,997.72
2022-12-22T02:12:40.358Z,997.77
2022-12-22T02:13:20.905Z,997.71
2022-12-22T02:14:01.451Z,997.74
2022-12-22T02:15:59.461Z,997.59
2022-12-22T02:16:39.917Z,997.6
2022-12-22T02:17:20.429Z,997.61
2022-12-22T02:18:00.981Z,997.56
2022-12-22T02:18:41.520Z,997.61
2022-12-22T02:19:22.042Z,997.51
2022-12-22T02:20:02.566Z,997.42
2022-12-22T02:20:43.080Z,997.43
2022-12-22T02:21:23.648Z,997.47
2022-12-22T02:22:04.170Z,997.56
2022-12-22T02:22:44.697Z,997.33
2022-12-22T02:23:26.124Z,997.48
2022-12-22T02:24:06.643Z,997.37
2022-12-22T02:24:47.195Z,997.37
2022-12-22T02:25:27.760Z,997.29
2022-12-22T02:26:08.304Z,997.29
2022-12-22T02:26:48.863Z,997.32
2022-12-22T02:27:29.396Z,997.28
2022-12-22T02:28:09.954Z,997.32
2022-12-22T02:28:50.503Z,997.31
2022-12-22T02:31:04.571Z,997.32
2022-12-22T02:31:45.197Z,997.21
2022-12-22T02:32:26.181Z,997.21
2022-12-22T02:33:09.770Z,997.22
2022-12-22T02:35:20.865Z,997.07
2022-12-22T02:36:01.414Z,997.26
2022-12-22T02:36:42.917Z,997.19
2022-12-22T02:37:23.436Z,997.19
2022-12-22T02:38:04.749Z,997.13
2022-12-22T02:39:57.636Z,997.2
2022-12-22T02:40:41.330Z,997.17
2022-12-22T02:41:18.676Z,997.11
2022-12-22T02:41:59.224Z,997.14
2022-12-22T02:42:39.776Z,997.11
2022-12-22T02:44:54.299Z,997.14
2022-12-22T02:45:34.903Z,997.19
2022-12-22T02:46:15.445Z,997.14
2022-12-22T02:46:55.995Z,997.06
2022-12-22T02:47:36.728Z,997.01
2022-12-22T02:48:17.341Z,997.02
2022-12-22T02:48:57.869Z,997.04
2022-12-22T02:49:38.383Z,996.99
2022-12-22T02:50:18.906Z,997
2022-12-22T02:50:59.447Z,997.05
2022-12-22T02:51:40.019Z,997.01
2022-12-22T02:52:20.517Z,997.01
2022-12-22T02:53:01.068Z,996.99
2022-12-22T02:53:41.547Z,997.02
2022-12-22T02:54:22.744Z,996.9
2022-12-22T02:55:03.269Z,996.96
2022-12-22T02:55:43.816Z,996.9
2022-12-22T02:56:24.383Z,996.88
2022-12-22T02:57:04.914Z,996.99
2022-12-22T02:57:45.435Z,996.9
2022-12-22T02:58:25.939Z,996.92
2022-12-22T02:59:06.498Z,996.93
2022-12-22T02:59:47.025Z,996.92
2022-12-22T03:00:27.571Z,996.81
2022-12-22T03:01:08.116Z,996.83
2022-12-22T03:01:48.817Z,996.93
2022-12-22T03:02:29.318Z,996.9
2022-12-22T03:03:09.923Z,996.87
2022-12-22T03:03:50.265Z,996.74
2022-12-22T03:04:30.777Z,996.8
2022-12-22T03:05:12.037Z,996.74
2022-12-22T03:05:52.589Z,996.81
2022-12-22T03:06:33.159Z,996.81
2022-12-22T03:08:46.328Z,996.88
2022-12-22T03:09:26.749Z,996.71
2022-12-22T03:10:07.300Z,996.73
2022-12-22T03:10:47.824Z,996.72
2022-12-22T03:11:28.350Z,996.7
2022-12-22T03:13:41.625Z,996.73
2022-12-22T03:14:22.177Z,996.64
2022-12-22T03:15:02.735Z,996.62
2022-12-22T03:15:43.339Z,996.6
2022-12-22T03:16:24.398Z,996.66
2022-12-22T03:17:05.437Z,996.63
2022-12-22T03:17:45.959Z,996.65
2022-12-22T03:18:26.508Z,996.68
2022-12-22T03:19:07.060Z,996.68
2022-12-22T03:19:47.649Z,996.67
2022-12-22T03:20:28.167Z,996.63
2022-12-22T03:21:08.708Z,996.66
2022-12-22T03:21:49.266Z,996.73
2022-12-22T03:22:29.824Z,996.74
2022-12-22T03:23:10.360Z,996.7
2022-12-22T03:23:50.932Z,996.64
2022-12-22T03:24:31.469Z,996.68
2022-12-22T03:25:12.023Z,996.66
2022-12-22T03:25:52.574Z,996.69
2022-12-22T03:26:33.120Z,996.64
2022-12-22T03:28:48.903Z,996.62
2022-12-22T03:29:29.508Z,996.69
2022-12-22T03:31:27.847Z,996.68
2022-12-22T03:32:08.299Z,996.69
2022-12-22T03:32:50.666Z,996.58
2022-12-22T03:33:31.242Z,996.65
2022-12-22T03:35:59.528Z,996.63
2022-12-22T03:36:40.055Z,996.72
2022-12-22T03:37:20.594Z,996.73
2022-12-22T03:38:01.137Z,996.72
2022-12-22T03:38:42.223Z,996.64
2022-12-22T03:40:56.842Z,996.69
2022-12-22T03:41:37.374Z,996.67
2022-12-22T03:42:17.923Z,996.64
2022-12-22T03:42:58.473Z,996.61
2022-12-22T03:43:39.021Z,996.64
2022-12-22T03:44:19.563Z,996.67
2022-12-22T03:45:00.106Z,996.63
2022-12-22T03:45:40.592Z,996.65
2022-12-22T03:46:21.169Z,996.6
2022-12-22T03:48:34.191Z,996.5
2022-12-22T03:49:14.767Z,996.54
2022-12-22T03:49:55.295Z,996.51
2022-12-22T03:50:35.807Z,996.58
2022-12-22T03:51:16.326Z,996.58
2022-12-22T03:51:56.854Z,996.44
2022-12-22T03:52:37.401Z,996.43
2022-12-22T03:53:17.938Z,996.45
2022-12-22T03:53:58.476Z,996.41
2022-12-22T03:54:38.977Z,996.5
2022-12-22T03:55:19.543Z,996.47
2022-12-22T03:56:04.180Z,996.44
2022-12-22T03:56:40.602Z,996.52
2022-12-22T03:57:21.143Z,996.6
2022-12-22T03:58:01.796Z,996.43
2022-12-22T03:58:42.255Z,996.44
2022-12-22T03:59:22.801Z,996.54
2022-12-22T04:00:03.338Z,996.55
2022-12-22T04:00:43.921Z,996.41
2022-12-22T04:02:41.698Z,996.56
2022-12-22T04:03:22.294Z,996.46
2022-12-22T04:04:03.674Z,996.45
2022-12-22T04:04:44.196Z,996.51
2022-12-22T04:05:24.715Z,996.49
2022-12-22T04:06:05.748Z,996.48
2022-12-22T04:06:46.292Z,996.53
2022-12-22T04:07:27.459Z,996.46
2022-12-22T04:08:08.000Z,996.61
2022-12-22T04:08:49.246Z,996.51
2022-12-22T04:09:29.761Z,996.45
2022-12-22T04:10:10.276Z,996.49
2022-12-22T04:10:50.834Z,996.49
2022-12-22T04:11:31.405Z,996.42
2022-12-22T04:12:11.933Z,996.53
2022-12-22T04:12:52.466Z,996.47
2022-12-22T04:13:32.968Z,996.57
2022-12-22T04:14:13.478Z,996.42
2022-12-22T04:14:53.990Z,996.47
2022-12-22T04:15:34.516Z,996.49
2022-12-22T04:16:15.061Z,996.41
2022-12-22T04:16:55.623Z,996.42
2022-12-22T04:17:36.086Z,996.42
2022-12-22T04:18:16.638Z,996.42
2022-12-22T04:18:57.144Z,996.3
2022-12-22T04:19:37.684Z,996.39
2022-12-22T04:20:18.246Z,996.39
2022-12-22T04:20:58.783Z,996.36
2022-12-22T04:21:39.334Z,996.37
2022-12-22T04:22:19.897Z,996.42
2022-12-22T04:23:00.491Z,996.32
2022-12-22T04:23:41.028Z,996.29
2022-12-22T04:24:21.559Z,996.25
2022-12-22T04:25:02.070Z,996.2
2022-12-22T04:25:42.581Z,996.2
2022-12-22T04:26:23.093Z,996.19
2022-12-22T04:27:03.659Z,996.16
2022-12-22T04:27:45.056Z,996.18
2022-12-22T04:28:25.628Z,996.22
2022-12-22T04:29:06.126Z,996.17
2022-12-22T04:29:46.631Z,996.1
2022-12-22T04:30:27.211Z,996.14
2022-12-22T04:31:07.745Z,996.11
2022-12-22T04:31:48.330Z,996.14
2022-12-22T04:32:28.795Z,996.11
2022-12-22T04:33:09.322Z,996.06
2022-12-22T04:33:49.868Z,996.11
2022-12-22T04:34:30.398Z,996
2022-12-22T04:35:10.909Z,996.03
2022-12-22T04:35:51.421Z,996.03
2022-12-22T04:36:31.964Z,996.01
2022-12-22T04:38:46.514Z,996.1
2022-12-22T04:39:27.068Z,996.06
2022-12-22T04:40:07.582Z,996.15
2022-12-22T04:40:48.174Z,996.09
2022-12-22T04:41:28.753Z,996.02
2022-12-22T04:42:09.265Z,996.08
2022-12-22T04:44:22.296Z,996.03
2022-12-22T04:45:02.847Z,995.97
2022-12-22T04:45:43.464Z,996.18
2022-12-22T04:46:23.947Z,996.09
2022-12-22T04:47:04.427Z,996.04
2022-12-22T04:47:44.951Z,996.05
2022-12-22T04:48:25.504Z,996.01
2022-12-22T04:49:06.563Z,996.01
2022-12-22T04:49:47.104Z,996.06
2022-12-22T04:50:27.654Z,995.95
2022-12-22T04:51:08.171Z,996.01
2022-12-22T04:51:48.683Z,996.04
2022-12-22T04:52:29.215Z,996.02
2022-12-22T04:53:09.770Z,995.97
2022-12-22T04:53:50.324Z,995.96
2022-12-22T04:54:30.920Z,995.74
2022-12-22T04:55:11.421Z,995.93
2022-12-22T04:55:51.973Z,995.98
2022-12-22T04:56:32.514Z,995.93
2022-12-22T04:58:47.902Z,995.98
2022-12-22T04:59:29.113Z,995.85
2022-12-22T05:00:10.230Z,995.81
2022-12-22T05:00:54.367Z,995.89
2022-12-22T05:03:07.952Z,995.92
2022-12-22T05:03:48.464Z,995.83
2022-12-22T05:04:28.936Z,995.86
2022-12-22T05:05:09.530Z,995.84
2022-12-22T05:05:50.054Z,995.86
2022-12-22T05:06:30.598Z,995.8
2022-12-22T05:07:11.152Z,995.85
2022-12-22T05:07:51.696Z,995.9
2022-12-22T05:08:32.222Z,995.81
2022-12-22T05:09:12.731Z,995.84
2022-12-22T05:09:53.254Z,995.84
2022-12-22T05:10:33.809Z,995.82
2022-12-22T05:11:14.363Z,995.86
2022-12-22T05:11:54.912Z,995.76
2022-12-22T05:12:35.474Z,995.72
2022-12-22T05:13:15.988Z,995.74
2022-12-22T05:13:58.652Z,995.79
2022-12-22T05:14:37.001Z,995.66
2022-12-22T05:15:17.566Z,995.67
2022-12-22T05:15:58.782Z,995.82
2022-12-22T05:16:39.329Z,995.78
2022-12-22T05:17:19.853Z,995.7
2022-12-22T05:18:00.358Z,995.7
2022-12-22T05:18:40.912Z,995.65
2022-12-22T05:20:53.925Z,995.71
2022-12-22T05:21:34.425Z,995.61
2022-12-22T05:22:14.947Z,995.7
2022-12-22T05:22:55.501Z,995.73
2022-12-22T05:23:36.038Z,995.65
2022-12-22T05:24:16.575Z,995.74
2022-12-22T05:24:57.086Z,995.78
2022-12-22T05:25:37.638Z,995.77
2022-12-22T05:26:18.154Z,995.69
2022-12-22T05:26:58.693Z,995.71
2022-12-22T05:27:39.241Z,995.68
2022-12-22T05:28:19.780Z,995.87
2022-12-22T05:29:00.331Z,995.72
2022-12-22T05:29:40.855Z,995.6
2022-12-22T05:30:21.362Z,995.88
2022-12-22T05:31:01.959Z,995.72
2022-12-22T05:31:47.068Z,995.68
2022-12-22T05:32:22.926Z,995.79
2022-12-22T05:33:03.470Z,995.68
2022-12-22T05:33:44.000Z,995.66
2022-12-22T05:34:24.521Z,995.73
2022-12-22T05:35:05.034Z,995.84
2022-12-22T05:35:45.554Z,995.76
2022-12-22T05:37:58.370Z,995.88
2022-12-22T05:38:39.843Z,995.88
2022-12-22T05:39:20.394Z,995.81
2022-12-22T05:40:00.942Z,995.86
2022-12-22T05:40:42.007Z,995.84
2022-12-22T05:41:22.566Z,995.88
2022-12-22T05:42:03.112Z,995.75
2022-12-22T05:42:43.656Z,995.78
2022-12-22T05:43:24.256Z,995.74
2022-12-22T05:44:04.820Z,995.7
2022-12-22T05:44:45.345Z,995.69
2022-12-22T05:45:25.903Z,995.82
2022-12-22T05:46:07.424Z,995.76
2022-12-22T05:46:47.919Z,995.76
2022-12-22T05:47:28.532Z,995.83
2022-12-22T05:49:41.648Z,995.73
2022-12-22T05:50:22.172Z,995.83
2022-12-22T05:51:02.763Z,995.8
2022-12-22T05:51:43.383Z,995.8
2022-12-22T05:52:23.913Z,995.76
2022-12-22T05:53:04.445Z,995.85
2022-12-22T05:53:45.013Z,995.9
2022-12-22T05:54:26.134Z,995.81
2022-12-22T05:55:06.672Z,995.89
2022-12-22T05:55:47.192Z,995.91
2022-12-22T05:56:27.708Z,995.86
2022-12-22T05:57:08.205Z,995.83
2022-12-22T05:57:48.724Z,995.75
2022-12-22T05:58:29.251Z,995.85
2022-12-22T05:59:09.800Z,995.72
2022-12-22T05:59:50.328Z,995.79
2022-12-22T06:00:30.893Z,995.79
2022-12-22T06:01:11.440Z,995.86
2022-12-22T06:01:52.000Z,995.87
2022-12-22T06:02:32.702Z,995.75
2022-12-22T06:03:13.095Z,995.72
2022-12-22T06:05:26.049Z,995.76
2022-12-22T06:06:06.589Z,995.69
2022-12-22T06:06:47.138Z,995.65
2022-12-22T06:07:27.691Z,995.74
2022-12-22T06:08:08.171Z,995.64
2022-12-22T06:08:48.687Z,995.73
2022-12-22T06:09:29.336Z,995.72
2022-12-22T06:10:12.590Z,995.63
2022-12-22T06:10:50.371Z,995.73
2022-12-22T06:11:30.894Z,995.69
2022-12-22T06:12:12.221Z,995.62
2022-12-22T06:12:52.770Z,995.66
2022-12-22T06:13:33.273Z,995.71
2022-12-22T06:14:13.906Z,995.72
2022-12-22T06:14:55.042Z,995.78
2022-12-22T06:15:35.702Z,995.78
2022-12-22T06:16:16.178Z,995.73
2022-12-22T06:16:56.607Z,995.56
2022-12-22T06:17:43.889Z,995.82
2022-12-22T06:18:18.040Z,995.54
2022-12-22T06:18:58.628Z,995.66
2022-12-22T06:19:39.143Z,995.62
2022-12-22T06:21:53.451Z,995.56
2022-12-22T06:22:33.992Z,995.63
2022-12-22T06:23:14.561Z,995.55
2022-12-22T06:23:55.098Z,995.85
2022-12-22T06:24:35.650Z,995.62
2022-12-22T06:25:18.634Z,995.51
2022-12-22T06:25:57.420Z,995.53
2022-12-22T06:26:38.943Z,995.63
2022-12-22T06:27:19.477Z,995.53
2022-12-22T06:27:59.990Z,995.59
2022-12-22T06:28:40.518Z,995.64
2022-12-22T06:29:21.081Z,995.66
2022-12-22T06:30:01.628Z,995.59
2022-12-22T06:30:42.178Z,995.65
2022-12-22T06:31:22.788Z,995.69
2022-12-22T06:32:03.241Z,995.6
2022-12-22T06:32:43.877Z,995.59
2022-12-22T06:33:24.402Z,995.59
2022-12-22T06:34:04.933Z,995.51
2022-12-22T06:36:18.486Z,995.63
2022-12-22T06:36:59.009Z,995.6
2022-12-22T06:37:39.570Z,995.65
2022-12-22T06:38:20.179Z,995.64
2022-12-22T06:39:00.752Z,995.68
2022-12-22T06:39:41.284Z,995.68
2022-12-22T06:40:21.890Z,995.77
2022-12-22T06:41:02.530Z,995.71
2022-12-22T06:41:43.067Z,995.88
2022-12-22T06:42:24.419Z,995.76
2022-12-22T06:44:23.110Z,995.85
2022-12-22T06:45:03.678Z,995.8
2022-12-22T06:45:44.202Z,995.8
2022-12-22T06:46:24.761Z,995.86
2022-12-22T06:47:05.235Z,995.76
2022-12-22T06:47:45.767Z,995.53
2022-12-22T06:49:58.817Z,995.79
2022-12-22T06:50:39.349Z,995.66
2022-12-22T06:51:19.869Z,995.9
2022-12-22T06:52:00.390Z,995.68
2022-12-22T06:52:40.898Z,995.92
2022-12-22T06:53:21.472Z,995.96
2022-12-22T06:54:02.005Z,995.76
2022-12-22T06:54:42.524Z,995.73
2022-12-22T06:55:23.052Z,995.84
2022-12-22T06:57:37.436Z,995.9
2022-12-22T06:58:18.608Z,995.88
2022-12-22T06:58:59.844Z,995.76
2022-12-22T06:59:40.336Z,995.95
2022-12-22T07:01:41.070Z,995.91
2022-12-22T07:02:21.731Z,995.86
2022-12-22T07:03:02.988Z,995.9
2022-12-22T07:03:43.371Z,995.89
2022-12-22T07:05:56.928Z,995.98
2022-12-22T07:06:37.449Z,996.02
2022-12-22T07:07:18.755Z,996.13
2022-12-22T07:08:06.094Z,996.02
2022-12-22T07:10:00.908Z,996.03
2022-12-22T07:10:41.426Z,996.04
2022-12-22T07:11:22.588Z,996.08
2022-12-22T07:12:03.137Z,996.07
2022-12-22T07:14:16.265Z,996.01
2022-12-22T07:15:00.154Z,996.11
2022-12-22T07:15:46.390Z,995.96
2022-12-22T07:16:26.954Z,996.13
2022-12-22T07:19:00.459Z,996.05
2022-12-22T07:19:40.959Z,996
2022-12-22T07:20:21.504Z,996.1
2022-12-22T07:21:02.068Z,995.95
2022-12-22T07:23:15.120Z,996.03
2022-12-22T07:23:55.675Z,996.07
2022-12-22T07:24:36.194Z,996.1
2022-12-22T07:25:16.765Z,996.12
2022-12-22T07:25:57.294Z,996.06
2022-12-22T07:28:13.655Z,996.12
2022-12-22T07:28:52.687Z,996.09
2022-12-22T07:29:33.212Z,996.14
2022-12-22T07:30:14.462Z,996.18
2022-12-22T07:32:28.069Z,995.99
2022-12-22T07:33:08.607Z,996.06
2022-12-22T07:33:49.167Z,996.17
2022-12-22T07:34:29.724Z,996.13
2022-12-22T07:35:10.221Z,996.14
2022-12-22T07:35:50.737Z,996.17
2022-12-22T07:38:03.848Z,996.23
2022-12-22T07:38:44.419Z,996.21
2022-12-22T07:39:26.510Z,996.18
2022-12-22T07:40:07.106Z,996.23
2022-12-22T07:42:22.781Z,996.27
2022-12-22T07:43:03.836Z,996.25
2022-12-22T07:43:44.355Z,996.16
2022-12-22T07:44:24.952Z,996.3
2022-12-22T07:46:24.141Z,996.17
2022-12-22T07:47:06.553Z,996.27
2022-12-22T07:47:48.650Z,996.15
2022-12-22T07:48:29.160Z,996.1
2022-12-22T07:50:45.471Z,996.07
2022-12-22T07:51:25.999Z,996.09
2022-12-22T07:52:07.164Z,996.13
2022-12-22T07:52:47.719Z,996.03
2022-12-22T07:55:07.160Z,996.11
2022-12-22T07:55:51.432Z,996.14
2022-12-22T07:56:33.589Z,996.24
2022-12-22T07:57:18.230Z,996.14
2022-12-22T07:59:50.122Z,996.17
2022-12-22T08:00:31.303Z,996.16
2022-12-22T08:01:13.516Z,996.14
2022-12-22T08:01:54.841Z,996.13
2022-12-22T08:04:08.659Z,996.2
2022-12-22T08:04:50.106Z,996.16
2022-12-22T08:05:33.341Z,996.32
2022-12-22T08:06:15.401Z,996.11
2022-12-22T08:08:28.825Z,996.13
2022-12-22T08:09:10.331Z,996.05
2022-12-22T08:09:50.858Z,996.05
2022-12-22T08:10:32.327Z,996.04
2022-12-22T08:11:12.881Z,996.05
2022-12-22T08:11:53.421Z,996.12
2022-12-22T08:12:33.976Z,995.95
2022-12-22T08:14:31.897Z,996.09
2022-12-22T08:15:12.467Z,996.07
2022-12-22T08:15:52.997Z,996
2022-12-22T08:16:33.559Z,996.04
2022-12-22T08:17:14.052Z,996.13
2022-12-22T08:17:54.637Z,996.27
2022-12-22T08:18:35.142Z,996.18
2022-12-22T08:19:15.687Z,996.2
2022-12-22T08:19:56.184Z,996.17
2022-12-22T08:20:36.703Z,996.03
2022-12-22T08:21:17.238Z,996
2022-12-22T08:21:58.669Z,996.12
2022-12-22T08:22:39.196Z,996.02
2022-12-22T08:23:19.723Z,996.24
2022-12-22T08:24:00.236Z,996.09
2022-12-22T08:24:41.495Z,996.13
2022-12-22T08:25:22.018Z,996.05
2022-12-22T08:26:02.566Z,996
2022-12-22T08:26:43.086Z,996.18
2022-12-22T08:27:26.072Z,996.05
2022-12-22T08:28:05.107Z,996.14
2022-12-22T08:28:46.611Z,996.05
2022-12-22T08:29:27.138Z,996.12
2022-12-22T08:30:07.689Z,996.1
2022-12-22T08:30:48.234Z,996.21
2022-12-22T08:31:28.836Z,996.16
2022-12-22T08:32:09.966Z,996.09
2022-12-22T08:32:50.428Z,996.06
2022-12-22T08:33:30.963Z,996.12
2022-12-22T08:34:11.494Z,996.08
2022-12-22T08:34:52.022Z,996.06
2022-12-22T08:35:32.535Z,996.19
2022-12-22T08:36:13.056Z,996.17
2022-12-22T08:36:53.588Z,996.02
2022-12-22T08:37:34.082Z,996.24
2022-12-22T08:38:15.315Z,996.18
2022-12-22T08:38:55.862Z,996.33
2022-12-22T08:39:36.418Z,996.28
2022-12-22T08:40:16.969Z,996.3
2022-12-22T08:40:57.525Z,996.25
2022-12-22T08:41:38.067Z,996.37
2022-12-22T08:42:18.616Z,996.46
2022-12-22T08:42:59.331Z,996.38
2022-12-22T08:43:40.485Z,996.45
2022-12-22T08:44:21.027Z,996.57
2022-12-22T08:45:01.556Z,996.52
2022-12-22T08:45:42.082Z,996.39
2022-12-22T08:46:22.617Z,996.39
2022-12-22T08:47:03.197Z,996.38
2022-12-22T08:47:43.677Z,996.51
2022-12-22T08:48:24.201Z,996.4
2022-12-22T08:49:04.776Z,996.53
2022-12-22T08:49:45.290Z,996.54
2022-12-22T08:50:25.808Z,996.7
2022-12-22T08:51:06.324Z,996.71
2022-12-22T08:51:46.845Z,996.72
2022-12-22T08:52:27.384Z,996.6
2022-12-22T08:53:18.681Z,996.65
2022-12-22T08:54:05.767Z,996.49
2022-12-22T08:54:29.026Z,996.67
2022-12-22T08:56:57.346Z,996.61
2022-12-22T08:57:38.747Z,996.58
2022-12-22T08:58:19.271Z,996.5
2022-12-22T08:58:59.816Z,996.61
2022-12-22T08:59:40.362Z,996.6
2022-12-22T09:02:00.247Z,996.61
2022-12-22T09:02:40.769Z,996.49
2022-12-22T09:03:21.770Z,996.66
2022-12-22T09:04:02.734Z,996.61
2022-12-22T09:04:44.107Z,996.6
2022-12-22T09:06:41.080Z,996.54
2022-12-22T09:07:17.276Z,996.6
2022-12-22T09:07:57.854Z,996.63
2022-12-22T09:08:38.374Z,996.57
2022-12-22T09:09:18.928Z,996.65
2022-12-22T09:09:59.473Z,996.64
2022-12-22T09:10:40.023Z,996.74
2022-12-22T09:11:20.525Z,996.59
2022-12-22T09:13:33.681Z,996.73
2022-12-22T09:14:14.239Z,996.8
2022-12-22T09:14:55.333Z,996.89
2022-12-22T09:15:35.881Z,996.83
2022-12-22T09:16:16.474Z,996.87
2022-12-22T09:16:57.944Z,996.91
2022-12-22T09:17:39.276Z,996.98
2022-12-22T09:19:52.861Z,996.97
2022-12-22T09:20:33.422Z,997.01
2022-12-22T09:21:14.115Z,996.85
2022-12-22T09:21:54.597Z,997.06
2022-12-22T09:22:35.862Z,996.92
2022-12-22T09:23:16.411Z,997.02
2022-12-22T09:23:56.926Z,997.08
2022-12-22T09:24:37.507Z,997.02
2022-12-22T09:25:18.782Z,997.11
2022-12-22T09:25:59.276Z,997.1
2022-12-22T09:26:39.846Z,997.1
2022-12-22T09:27:20.389Z,997.21
2022-12-22T09:28:01.897Z,997.1
2022-12-22T09:28:46.548Z,997.22
2022-12-22T09:29:23.239Z,997.18
2022-12-22T09:31:41.531Z,997.25
2022-12-22T09:32:22.267Z,997.08
2022-12-22T09:33:02.698Z,997.09
2022-12-22T09:33:43.265Z,997.13
2022-12-22T09:34:23.793Z,997.08
2022-12-22T09:36:36.891Z,997.08
2022-12-22T09:37:17.420Z,997.17
2022-12-22T09:37:57.956Z,997.16
2022-12-22T09:38:39.482Z,997.28
2022-12-22T09:40:58.886Z,997.36
2022-12-22T09:41:39.477Z,997.21
2022-12-22T09:42:19.978Z,997.24
2022-12-22T09:43:00.532Z,997.27
2022-12-22T09:45:30.091Z,997.34
2022-12-22T09:46:10.588Z,997.27
2022-12-22T09:46:51.046Z,997.35
2022-12-22T09:47:33.407Z,997.31
2022-12-22T09:50:02.019Z,997.24
2022-12-22T09:50:42.559Z,997.32
2022-12-22T09:51:26.967Z,997.28
2022-12-22T09:52:03.764Z,997.23
2022-12-22T09:52:44.348Z,997.33
2022-12-22T09:53:24.871Z,997.29
2022-12-22T09:55:17.765Z,997.55
2022-12-22T09:55:58.880Z,997.38
2022-12-22T09:56:39.381Z,997.42
2022-12-22T09:57:19.877Z,997.43
2022-12-22T09:58:00.430Z,997.39
2022-12-22T09:58:40.947Z,997.48
2022-12-22T09:59:22.384Z,997.31
2022-12-22T10:00:02.900Z,997.36
2022-12-22T10:02:02.423Z,997.62
2022-12-22T10:02:42.918Z,997.44
2022-12-22T10:03:24.357Z,997.45
2022-12-22T10:04:05.520Z,997.66
2022-12-22T10:06:22.264Z,997.56
2022-12-22T10:07:03.645Z,997.72
2022-12-22T10:07:44.188Z,997.71
2022-12-22T10:08:24.736Z,997.74